Time;durP1;ratioP1;P1;durP2;ratioP2;P2;SDS_P1;SDS_P2;PMS_P1;PMS_P2;Temp;Humidity;BMP_temperature;BMP_pressure;BME280_temperature;BME280_humidity;BME280_pressure;Samples;Min_cycle;Max_cycle;Signal;HPM_P1;HPM_P2
2021/12/24 00:00:33;;;;;;;;;53.25;42.75;;;;;2.19;62.90;101854.13;146602;657;46010;-76
2021/12/24 00:03:25;;;;;;;;;48.25;39.50;;;;;2.20;63.74;101866.19;146604;567;45021;-76
2021/12/24 00:06:17;;;;;;;;;71.25;56.00;;;;;2.18;62.83;101863.47;146601;566;46016;-77
2021/12/24 00:09:20;;;;;;;;;52.50;42.00;;;;;2.19;63.65;101866.94;146602;574;47008;-75
2021/12/24 00:12:17;;;;;;;;;62.75;47.50;;;;;2.16;63.16;101854.72;146604;616;45016;-73
2021/12/24 00:18:36;;;;;;;;;53.00;44.75;;;;;2.12;62.96;101849.12;146601;571;45915;-77
2021/12/24 00:22:14;;;;;;;;;57.00;43.50;;;;;2.14;63.25;101848.53;146602;586;46020;-79
2021/12/24 00:37:37;;;;;;;;;55.50;44.75;;;;;1.97;63.06;101822.91;146606;629;45915;-73
2021/12/24 00:40:29;;;;;;;;;58.75;48.25;;;;;1.91;62.96;101814.59;146607;573;46021;-73
2021/12/24 00:43:21;;;;;;;;;53.25;42.75;;;;;1.90;62.68;101821.38;146606;575;46917;-71
2021/12/24 00:46:13;;;;;;;;;53.75;44.50;;;;;1.87;64.21;101818.50;146606;610;46021;-72
2021/12/24 00:49:06;;;;;;;;;59.75;45.25;;;;;1.83;63.81;101817.25;146604;643;46016;-71
2021/12/24 00:52:19;;;;;;;;;58.75;45.00;;;;;1.77;64.51;101816.59;146607;601;46008;-72
2021/12/24 00:55:12;;;;;;;;;54.25;42.00;;;;;1.72;64.20;101809.22;146604;578;46017;-80
2021/12/24 00:58:07;;;;;;;;;52.25;41.25;;;;;1.68;64.30;101813.09;146607;618;46020;-77
2021/12/24 01:00:59;;;;;;;;;47.00;37.50;;;;;1.64;63.65;101808.41;146604;573;48010;-73
2021/12/24 01:03:51;;;;;;;;;49.00;39.25;;;;;1.59;63.96;101805.41;146606;618;46008;-74
2021/12/24 01:06:44;;;;;;;;;51.00;39.00;;;;;1.56;65.18;101806.75;146604;587;46917;-79
2021/12/24 01:09:36;;;;;;;;;50.00;40.25;;;;;1.57;63.15;101808.53;146607;599;46020;-73
2021/12/24 01:12:28;;;;;;;;;55.50;41.75;;;;;1.55;64.34;101804.91;146603;581;47012;-74
2021/12/24 01:15:21;;;;;;;;;43.00;38.75;;;;;1.50;64.28;101803.53;146608;585;46021;-74
2021/12/24 01:18:30;;;;;;;;;53.25;41.25;;;;;1.52;63.81;101802.94;146607;628;46010;-75
2021/12/24 01:21:59;;;;;;;;;47.00;39.00;;;;;1.53;64.36;101807.31;146604;649;47020;-74
2021/12/24 01:25:07;;;;;;;;;55.75;45.00;;;;;1.56;64.01;101799.06;146604;617;46012;-75
2021/12/24 01:38:12;;;;;;;;;58.25;46.25;;;;;1.60;64.67;101773.06;146607;598;46915;-82
2021/12/24 01:41:08;;;;;;;;;84.67;68.67;;;;;1.56;64.13;101773.50;146610;567;46008;-84
2021/12/24 01:44:00;;;;;;;;;61.50;49.25;;;;;1.51;64.70;101772.13;146605;717;46016;-83
2021/12/24 01:46:52;;;;;;;;;45.25;36.50;;;;;1.49;63.63;101771.94;146609;661;46021;-83
2021/12/24 01:49:44;;;;;;;;;42.75;35.75;;;;;1.50;64.74;101765.19;146604;586;46917;-81
2021/12/24 01:52:38;;;;;;;;;52.50;41.75;;;;;1.48;63.72;101769.25;146609;709;45020;-85
2021/12/24 01:55:31;;;;;;;;;51.00;39.50;;;;;1.47;64.78;101767.44;146606;611;45916;-84
2021/12/24 01:58:24;;;;;;;;;46.75;38.00;;;;;1.43;64.31;101768.75;146610;604;46010;-81
2021/12/24 02:01:17;;;;;;;;;40.25;37.00;;;;;1.42;65.76;101764.38;146605;576;46917;-80
2021/12/24 02:04:11;;;;;;;;;47.25;40.00;;;;;1.39;64.98;101762.41;146607;572;46020;-77
2021/12/24 02:07:04;;;;;;;;;44.50;37.00;;;;;1.35;64.15;101752.63;146603;639;46017;-76
2021/12/24 02:09:58;;;;;;;;;48.25;39.00;;;;;1.37;64.69;101750.22;146607;693;46008;-76
2021/12/24 02:12:52;;;;;;;;;43.25;35.75;;;;;1.36;65.30;101735.63;146607;625;46010;-81
2021/12/24 02:28:47;;;;;;;;;37.75;32.50;;;;;1.14;65.41;101728.28;146607;566;46020;-77
2021/12/24 02:31:39;;;;;;;;;47.75;40.25;;;;;1.14;64.49;101719.72;146605;739;46918;-76
2021/12/24 02:34:32;;;;;;;;;38.25;33.00;;;;;1.16;65.14;101720.81;146606;583;46008;-81
2021/12/24 02:37:24;;;;;;;;;38.25;32.00;;;;;1.14;65.39;101722.28;146602;606;46017;-76
2021/12/24 02:40:16;;;;;;;;;38.00;34.75;;;;;1.14;64.16;101723.19;146602;616;46008;-76
2021/12/24 02:43:13;;;;;;;;;36.50;31.50;;;;;1.14;64.45;101718.06;146600;760;46016;-75
2021/12/24 02:46:27;;;;;;;;;35.75;29.75;;;;;1.15;63.57;101711.31;146601;628;47008;-76
2021/12/24 02:53:55;;;;;;;;;39.50;36.00;;;;;1.20;65.94;101714.38;146600;567;46016;-75
2021/12/24 02:55:43;;;;;;;;;38.75;30.75;;;;;1.19;64.68;101705.78;146602;590;46018;-75
2021/12/24 02:58:47;;;;;;;;;53.00;43.50;;;;;1.18;64.86;101710.72;146605;598;46021;-81
2021/12/24 03:01:42;;;;;;;;;37.50;32.50;;;;;1.17;64.48;101714.03;146604;651;45042;-75
2021/12/24 03:04:34;;;;;;;;;35.25;30.75;;;;;1.11;64.68;101699.88;146601;655;46026;-78
2021/12/24 03:07:26;;;;;;;;;46.50;38.75;;;;;1.11;65.24;101714.31;146603;573;45017;-75
2021/12/24 03:10:21;;;;;;;;;32.25;28.50;;;;;1.10;64.68;101704.84;146603;606;46020;-74
2021/12/24 03:13:13;;;;;;;;;38.75;34.25;;;;;1.06;65.22;101703.63;146603;596;46010;-74
2021/12/24 03:16:06;;;;;;;;;32.25;28.75;;;;;1.01;65.84;101697.13;146603;566;46021;-73
2021/12/24 03:18:58;;;;;;;;;33.50;28.50;;;;;0.96;64.92;101695.72;146598;595;46016;-78
2021/12/24 03:21:57;;;;;;;;;40.50;32.25;;;;;0.95;65.59;101698.13;146602;576;46008;-75
2021/12/24 03:24:49;;;;;;;;;46.50;37.50;;;;;0.99;64.50;101705.34;146600;594;46017;-76
2021/12/24 03:27:42;;;;;;;;;34.75;30.75;;;;;1.02;66.07;101711.69;146604;566;46008;-76
2021/12/24 03:30:35;;;;;;;;;34.25;29.00;;;;;1.03;65.74;101704.91;146602;577;46017;-75
2021/12/24 03:33:27;;;;;;;;;34.50;30.50;;;;;0.98;65.10;101711.22;146609;609;46008;-77
2021/12/24 03:36:19;;;;;;;;;34.25;30.00;;;;;0.97;65.89;101706.88;146601;570;46017;-75
2021/12/24 03:39:13;;;;;;;;;34.25;30.25;;;;;0.98;65.97;101713.78;146609;583;46008;-77
2021/12/24 03:42:06;;;;;;;;;47.75;37.75;;;;;0.98;64.83;101724.87;146601;629;46016;-76
2021/12/24 03:45:08;;;;;;;;;44.25;34.50;;;;;1.01;64.88;101719.19;146605;576;45911;-76
2021/12/24 03:48:12;;;;;;;;;31.25;30.00;;;;;1.03;64.79;101717.69;146603;618;45016;-77
2021/12/24 03:57:28;;;;;;;;;34.75;26.75;;;;;0.96;64.95;101708.47;146601;569;46020;-81
2021/12/24 04:00:25;;;;;;;;;28.75;26.75;;;;;0.92;64.77;101698.69;146601;632;46011;-78
2021/12/24 04:03:17;;;;;;;;;35.75;30.75;;;;;0.85;65.03;101694.59;146605;701;46008;-83
2021/12/24 04:06:09;;;;;;;;;30.25;27.00;;;;;0.83;65.25;101700.28;146597;614;46917;-79
2021/12/24 04:09:02;;;;;;;;;32.00;28.00;;;;;0.81;64.59;101695.03;146601;586;46910;-79
2021/12/24 04:11:54;;;;;;;;;33.25;28.50;;;;;0.83;65.65;101700.28;146601;608;46010;-78
2021/12/24 04:14:46;;;;;;;;;35.25;30.00;;;;;0.79;66.13;101700.72;146602;582;47010;-78
2021/12/24 04:17:41;;;;;;;;;29.25;23.50;;;;;0.76;65.41;101702.94;146598;580;46016;-78
2021/12/24 04:26:53;;;;;;;;;36.75;29.25;;;;;0.61;65.84;101700.56;146605;608;46020;-83
2021/12/24 04:29:46;;;;;;;;;28.50;27.50;;;;;0.63;65.30;101710.97;146597;570;47012;-83
2021/12/24 04:39:30;;;;;;;;;28.75;26.00;;;;;0.62;65.81;101711.69;146602;591;46020;-84
2021/12/24 04:51:52;;;;;;;;;30.75;27.25;;;;;0.54;66.69;101699.78;146599;674;46022;-78
2021/12/24 05:01:25;;;;;;;;;38.75;30.50;;;;;0.48;65.92;101705.13;146601;630;46016;-74
2021/12/24 05:04:25;;;;;;;;;40.50;32.25;;;;;0.44;66.45;101714.09;146603;573;46020;-76
2021/12/24 05:10:35;;;;;;;;;31.50;28.25;;;;;0.41;66.95;101708.66;146602;616;46022;-74
2021/12/24 05:13:27;;;;;;;;;38.50;30.50;;;;;0.37;67.38;101709.06;146601;628;46917;-81
2021/12/24 05:16:27;;;;;;;;;31.75;27.25;;;;;0.36;67.56;101708.91;146603;609;46020;-83
2021/12/24 05:22:32;;;;;;;;;67.75;49.25;;;;;0.38;66.44;101704.87;146605;660;46021;-76
2021/12/24 05:25:25;;;;;;;;;91.00;63.00;;;;;0.40;65.58;101703.38;146601;687;46016;-77
2021/12/24 05:28:18;;;;;;;;;59.00;43.25;;;;;0.45;66.43;101703.12;146607;578;47008;-77
2021/12/24 05:31:10;;;;;;;;;34.25;29.25;;;;;0.45;66.68;101699.69;146602;590;46016;-84
2021/12/24 05:34:03;;;;;;;;;93.67;76.33;;;;;0.45;66.62;101700.59;146606;606;45020;-84
2021/12/24 05:36:56;;;;;;;;;169.00;152.00;;;;;0.46;65.41;101694.72;146610;581;46017;-73
2021/12/24 05:39:48;;;;;;;;;71.00;51.50;;;;;0.47;66.58;101690.56;146609;652;46017;-73
2021/12/24 05:42:40;;;;;;;;;144.75;133.00;;;;;0.49;65.90;101693.25;146605;623;46016;-77
2021/12/24 05:45:33;;;;;;;;;41.50;34.75;;;;;0.48;66.40;101689.81;146607;564;46008;-77
2021/12/24 05:48:26;;;;;;;;;47.50;39.75;;;;;0.47;67.35;101690.56;146600;591;46016;-77
2021/12/24 05:51:18;;;;;;;;;56.00;43.25;;;;;0.46;67.01;101687.09;146601;624;46020;-75
2021/12/24 05:54:10;;;;;;;;;28.75;24.00;;;;;0.46;66.63;101688.72;146599;586;46010;-79
2021/12/24 05:57:02;;;;;;;;;51.50;41.25;;;;;0.45;67.03;101685.28;146600;586;47008;-78
2021/12/24 05:59:54;;;;;;;;;35.25;32.75;;;;;0.49;66.02;101690.72;146599;583;47010;-80
2021/12/24 06:02:49;;;;;;;;;44.75;41.50;;;;;0.55;65.50;101687.16;146603;563;47008;-79
2021/12/24 06:05:42;;;;;;;;;81.00;63.00;;;;;0.66;65.21;101688.31;146601;582;46010;-79
2021/12/24 06:08:44;;;;;;;;;54.50;41.75;;;;;0.76;66.12;101695.28;146606;617;46020;-81
2021/12/24 06:11:36;;;;;;;;;70.50;54.25;;;;;0.81;66.71;101695.03;146598;581;46016;-76
2021/12/24 06:14:28;;;;;;;;;53.00;42.25;;;;;0.84;65.50;101686.78;146602;709;46021;-75
2021/12/24 06:17:22;;;;;;;;;60.00;46.25;;;;;0.88;66.07;101691.47;146597;664;46917;-75
2021/12/24 06:20:15;;;;;;;;;64.25;50.00;;;;;0.87;67.30;101685.47;146602;608;46021;-76
2021/12/24 06:23:08;;;;;;;;;74.75;56.25;;;;;0.91;65.90;101692.69;146601;606;46010;-75
2021/12/24 06:26:03;;;;;;;;;72.00;58.00;;;;;0.95;66.59;101699.03;146603;576;47008;-78
2021/12/24 06:28:56;;;;;;;;;55.25;43.25;;;;;1.00;67.09;101702.03;146599;569;46010;-82
2021/12/24 06:31:48;;;;;;;;;43.00;39.00;;;;;1.04;65.83;101711.87;146604;588;46020;-83
2021/12/24 06:34:40;;;;;;;;;47.75;38.75;;;;;1.06;65.56;101710.34;146598;564;46017;-78
2021/12/24 06:37:33;;;;;;;;;66.25;51.00;;;;;1.13;67.11;101716.28;146601;582;46021;-72
2021/12/24 06:40:24;;;;;;;;;57.50;45.75;;;;;1.20;66.19;101706.69;146603;760;47008;-80
2021/12/24 06:43:17;;;;;;;;;56.75;43.50;;;;;1.30;65.46;101714.56;146603;592;46021;-76
2021/12/24 06:46:12;;;;;;;;;61.50;49.25;;;;;1.57;66.00;101714.84;146599;637;46016;-76
2021/12/24 06:49:04;;;;;;;;;50.75;41.00;;;;;2.36;65.26;101707.41;146600;591;46020;-73
2021/12/24 06:51:56;;;;;;;;;64.50;48.50;;;;;3.49;63.98;101710.75;146599;627;46918;-76
2021/12/24 06:54:48;;;;;;;;;84.00;66.33;;;;;4.72;61.00;101706.69;146604;605;46008;-75
2021/12/24 06:57:42;;;;;;;;;68.75;53.75;;;;;5.65;57.62;101702.09;146603;805;46012;-75
2021/12/24 07:00:34;;;;;;;;;63.75;48.50;;;;;6.24;55.82;101684.81;146605;577;46020;-75
2021/12/24 07:03:26;;;;;;;;;57.00;44.25;;;;;6.74;54.72;101682.94;146600;608;46016;-75
2021/12/24 07:06:19;;;;;;;;;54.00;43.25;;;;;7.37;53.61;101683.72;146604;590;46008;-71
2021/12/24 07:09:11;;;;;;;;;67.00;52.75;;;;;8.05;52.20;101689.00;146600;589;46010;-70
2021/12/24 07:12:03;;;;;;;;;68.50;53.25;;;;;8.83;50.54;101678.47;146603;592;46020;-70
2021/12/24 07:14:56;;;;;;;;;98.33;84.00;;;;;9.48;48.91;101672.84;146604;584;46010;-80
2021/12/24 07:17:49;;;;;;;;;66.75;52.50;;;;;10.08;48.19;101678.72;146604;618;46020;-79
2021/12/24 07:20:41;;;;;;;;;66.75;51.75;;;;;10.69;46.90;101671.59;146598;573;46017;-78
2021/12/24 07:23:34;;;;;;;;;72.00;55.75;;;;;11.02;44.61;101668.56;146605;620;45020;-79
2021/12/24 07:26:26;;;;;;;;;67.50;51.75;;;;;11.16;44.73;101666.88;146599;634;46026;-79
2021/12/24 07:29:18;;;;;;;;;61.25;47.75;;;;;11.30;45.14;101665.16;146603;570;46008;-72
2021/12/24 07:32:11;;;;;;;;;70.75;55.00;;;;;11.56;44.03;101666.81;146601;618;46016;-70
2021/12/24 07:35:03;;;;;;;;;74.00;59.67;;;;;11.67;43.34;101662.25;146604;649;46023;-73
2021/12/24 07:37:56;;;;;;;;;54.75;44.00;;;;;11.67;44.66;101667.44;146602;578;46016;-73
2021/12/24 07:40:49;;;;;;;;;64.50;52.00;;;;;11.74;43.64;101667.00;146608;606;46008;-78
2021/12/24 07:43:41;;;;;;;;;59.50;47.75;;;;;11.77;45.09;101662.94;146604;583;46017;-72
2021/12/24 07:46:46;;;;;;;;;65.50;49.75;;;;;11.79;42.93;101669.09;146606;570;46008;-81
2021/12/24 07:49:41;;;;;;;;;61.50;50.00;;;;;11.77;45.05;101665.53;146603;608;46917;-80
2021/12/24 07:52:33;;;;;;;;;74.50;55.50;;;;;11.77;43.21;101673.31;146609;598;46008;-79
2021/12/24 07:55:25;;;;;;;;;68.25;53.00;;;;;11.70;44.81;101676.31;146607;579;46012;-80
2021/12/24 07:58:18;;;;;;;;;63.25;50.00;;;;;11.61;43.69;101675.75;146606;577;46021;-80
2021/12/24 08:01:10;;;;;;;;;67.50;52.25;;;;;11.49;44.14;101662.91;146604;606;46012;-79
2021/12/24 08:04:03;;;;;;;;;69.75;54.25;;;;;11.41;44.42;101658.06;146611;580;46008;-80
2021/12/24 08:06:56;;;;;;;;;62.25;48.25;;;;;11.36;45.21;101662.03;146605;591;46010;-79
2021/12/24 08:09:48;;;;;;;;;68.00;54.00;;;;;11.36;46.50;101655.16;146607;565;46020;-80
2021/12/24 08:12:40;;;;;;;;;66.00;49.75;;;;;11.39;46.03;101651.84;146608;599;46012;-81
2021/12/24 08:15:32;;;;;;;;;58.25;45.75;;;;;11.37;46.40;101659.56;146607;600;46008;-80
2021/12/24 08:18:24;;;;;;;;;55.25;41.25;;;;;11.30;44.40;101650.47;146607;570;46017;-76
2021/12/24 08:21:17;;;;;;;;;60.00;49.00;;;;;11.18;44.73;101649.69;146609;670;46008;-74
2021/12/24 08:24:10;;;;;;;;;55.75;43.25;;;;;11.08;46.80;101639.53;146606;578;46917;-71
2021/12/24 08:27:02;;;;;;;;;51.50;41.00;;;;;11.07;44.32;101629.94;146610;582;45023;-73
2021/12/24 08:29:54;;;;;;;;;52.00;40.50;;;;;11.00;45.46;101628.66;146605;571;46010;-72
2021/12/24 08:32:47;;;;;;;;;51.50;42.00;;;;;10.99;45.65;101633.75;146608;643;46020;-72
2021/12/24 08:35:39;;;;;;;;;53.25;42.00;;;;;11.01;46.07;101626.97;146601;582;46017;-72
2021/12/24 08:38:31;;;;;;;;;58.50;46.00;;;;;11.04;45.76;101619.38;146604;571;46008;-72
2021/12/24 08:41:23;;;;;;;;;54.50;43.75;;;;;11.07;44.56;101623.06;146602;624;45917;-71
2021/12/24 08:44:15;;;;;;;;;58.00;47.00;;;;;11.13;44.13;101619.06;146600;622;47008;-72
2021/12/24 08:47:08;;;;;;;;;55.75;44.25;;;;;11.13;44.33;101613.88;146599;612;46031;-72
2021/12/24 08:50:01;;;;;;;;;58.00;45.00;;;;;11.18;45.01;101602.94;146606;611;45021;-71
2021/12/24 08:52:53;;;;;;;;;57.00;44.75;;;;;11.18;43.64;101612.44;146600;601;46016;-72
2021/12/24 08:55:46;;;;;;;;;55.00;43.50;;;;;11.08;45.61;101614.47;146602;581;46021;-72
2021/12/24 08:58:38;;;;;;;;;62.25;48.75;;;;;11.18;44.03;101608.16;146601;572;46010;-72
2021/12/24 09:01:31;;;;;;;;;60.00;46.25;;;;;11.32;44.68;101603.84;146600;583;46020;-73
2021/12/24 09:04:23;;;;;;;;;58.75;47.00;;;;;11.44;44.32;101591.62;146597;565;47010;-72
2021/12/24 09:07:15;;;;;;;;;56.00;45.00;;;;;11.59;44.56;101590.72;146601;619;47008;-71
2021/12/24 09:10:09;;;;;;;;;58.25;46.50;;;;;11.77;44.50;101587.56;146597;579;47010;-72
2021/12/24 09:13:01;;;;;;;;;56.50;45.50;;;;;11.95;44.33;101586.91;146603;661;46008;-71
2021/12/24 09:15:54;;;;;;;;;55.00;43.75;;;;;12.09;42.93;101572.13;146599;632;46012;-73
2021/12/24 09:18:49;;;;;;;;;59.75;47.50;;;;;12.11;43.43;101573.09;146603;627;46008;-72
2021/12/24 09:21:41;;;;;;;;;55.75;43.75;;;;;12.10;44.04;101563.53;146600;618;46025;-72
2021/12/24 09:24:34;;;;;;;;;60.50;46.25;;;;;12.15;43.41;101552.59;146601;609;47008;-72
2021/12/24 09:27:26;;;;;;;;;63.00;50.00;;;;;12.23;44.16;101548.69;146598;590;47016;-71
2021/12/24 09:30:19;;;;;;;;;58.75;47.75;;;;;12.37;44.52;101541.72;146603;670;47008;-74
2021/12/24 09:33:11;;;;;;;;;58.25;46.00;;;;;12.52;43.66;101536.47;146599;593;46917;-72
2021/12/24 09:36:03;;;;;;;;;47.00;38.00;;;;;12.64;42.29;101536.25;146601;641;46021;-72
2021/12/24 09:39:01;;;;;;;;;52.75;43.00;;;;;12.61;42.18;101530.88;146599;605;47010;-72
2021/12/24 09:41:53;;;;;;;;;50.75;42.00;;;;;12.53;43.38;101517.47;146601;727;46010;-73
2021/12/24 09:44:45;;;;;;;;;48.00;38.25;;;;;12.58;43.91;101521.19;146598;563;46016;-72
2021/12/24 09:47:37;;;;;;;;;37.75;33.25;;;;;12.68;41.57;101512.22;146600;590;47008;-71
2021/12/24 09:50:31;;;;;;;;;36.75;31.50;;;;;12.70;42.51;101511.47;146598;577;46917;-72
2021/12/24 09:53:23;;;;;;;;;39.50;33.00;;;;;12.81;42.84;101499.06;146604;631;46020;-72
2021/12/24 09:56:15;;;;;;;;;43.00;36.50;;;;;13.01;41.50;101494.03;146597;579;46017;-72
2021/12/24 09:59:07;;;;;;;;;47.75;38.50;;;;;13.10;42.59;101487.59;146604;702;46020;-72
2021/12/24 10:02:03;;;;;;;;;56.25;44.25;;;;;13.18;41.35;101477.59;146600;678;46917;-72
2021/12/24 10:04:55;;;;;;;;;48.75;39.75;;;;;13.13;41.25;101466.03;146604;748;46008;-72
2021/12/24 10:07:48;;;;;;;;;49.25;39.50;;;;;13.11;41.02;101460.72;146598;619;46917;-72
2021/12/24 10:10:43;;;;;;;;;45.75;35.25;;;;;13.15;42.56;101456.59;146601;777;47008;-73
2021/12/24 10:13:56;;;;;;;;;56.25;44.25;;;;;13.32;43.65;101453.19;146599;604;45917;-71
2021/12/24 10:16:50;;;;;;;;;52.75;41.75;;;;;13.51;41.29;101439.38;146604;574;46020;-71
2021/12/24 10:19:54;;;;;;;;;37.75;30.75;;;;;13.72;42.87;101442.19;146599;590;46017;-71
2021/12/24 10:22:55;;;;;;;;;54.50;42.25;;;;;13.91;41.60;101436.16;146604;604;47008;-71
2021/12/24 10:25:47;;;;;;;;;50.75;41.75;;;;;14.02;41.48;101436.72;146596;590;46017;-72
2021/12/24 10:28:40;;;;;;;;;50.25;39.50;;;;;14.14;40.03;101429.44;146604;585;46008;-72
2021/12/24 10:32:03;;;;;;;;;43.75;37.50;;;;;14.21;40.29;101422.84;146599;588;46916;-72
2021/12/24 10:34:55;;;;;;;;;58.25;44.25;;;;;14.18;39.54;101418.38;146602;607;46010;-71
2021/12/24 10:37:47;;;;;;;;;54.50;42.00;;;;;14.15;40.34;101414.72;146606;572;46010;-70
2021/12/24 10:40:39;;;;;;;;;50.75;41.50;;;;;14.14;39.41;101407.69;146606;604;46008;-70
2021/12/24 10:43:39;;;;;;;;;48.50;39.00;;;;;14.13;40.49;101401.59;146605;633;46016;-70
2021/12/24 10:46:31;;;;;;;;;54.75;42.25;;;;;14.28;41.14;101397.09;146605;588;46020;-71
2021/12/24 10:53:15;;;;;;;;;44.25;35.50;;;;;14.72;38.56;101392.16;146607;700;46008;-70
2021/12/24 10:56:08;;;;;;;;;37.00;30.50;;;;;14.85;38.79;101385.78;146604;575;46011;-70
2021/12/24 10:59:01;;;;;;;;;38.25;32.50;;;;;14.93;37.91;101381.78;146607;570;46020;-70
2021/12/24 11:02:14;;;;;;;;;37.00;33.00;;;;;14.82;39.92;101367.38;146605;639;46917;-70
2021/12/24 11:05:08;;;;;;;;;26.00;22.25;;;;;14.69;38.11;101361.59;146606;604;46021;-69
2021/12/24 11:08:03;;;;;;;;;29.50;23.25;;;;;14.60;38.98;101349.84;146605;591;46012;-70
2021/12/24 11:10:58;;;;;;;;;32.25;29.25;;;;;14.67;38.83;101350.22;146606;629;46008;-70
2021/12/24 11:13:52;;;;;;;;;38.75;33.25;;;;;14.76;40.70;101341.87;146606;632;46016;-70
2021/12/24 11:16:47;;;;;;;;;31.75;26.75;;;;;14.93;40.83;101335.69;146609;576;47009;-71
2021/12/24 11:19:55;;;;;;;;;28.75;25.25;;;;;15.18;41.73;101327.16;146601;636;46016;-70
2021/12/24 11:22:59;;;;;;;;;32.50;28.50;;;;;15.40;40.94;101326.34;146609;565;46020;-69
2021/12/24 11:25:58;;;;;;;;;36.25;31.75;;;;;15.63;39.79;101322.03;146603;587;46917;-71
2021/12/24 11:28:51;;;;;;;;;40.25;33.50;;;;;15.79;38.49;101313.09;146607;607;46008;-69
2021/12/24 11:31:44;;;;;;;;;38.25;32.50;;;;;15.87;38.63;101310.81;146605;641;46017;-70
2021/12/24 11:34:36;;;;;;;;;38.75;32.25;;;;;15.96;39.11;101310.28;146609;622;45021;-70
2021/12/24 11:37:28;;;;;;;;;37.25;29.75;;;;;16.00;38.08;101306.94;146601;600;46917;-70
2021/12/24 11:40:23;;;;;;;;;43.00;34.50;;;;;16.01;39.02;101309.62;146601;743;46008;-70
2021/12/24 11:43:15;;;;;;;;;40.50;34.50;;;;;16.01;38.35;101304.41;146599;624;46010;-70
2021/12/24 11:46:10;;;;;;;;;27.00;26.75;;;;;16.02;39.16;101305.28;146602;572;47008;-70
2021/12/24 11:49:02;;;;;;;;;32.00;26.00;;;;;16.05;38.73;101294.94;146600;569;46016;-69
2021/12/24 11:51:54;;;;;;;;;25.00;24.75;;;;;16.09;38.82;101300.34;146604;569;46020;-70
2021/12/24 11:54:48;;;;;;;;;26.75;26.75;;;;;16.16;38.65;101297.09;146599;600;46017;-69
2021/12/24 11:57:52;;;;;;;;;33.25;28.75;;;;;16.22;38.29;101293.84;146602;632;47020;-69
2021/12/24 12:00:47;;;;;;;;;27.75;25.75;;;;;16.24;38.30;101281.72;146598;609;46016;-69
2021/12/24 12:03:46;;;;;;;;;34.25;29.00;;;;;16.37;38.57;101276.09;146603;580;46008;-69
2021/12/24 12:06:38;;;;;;;;;47.00;38.50;;;;;16.52;38.27;101272.25;146599;613;47010;-70
2021/12/24 12:09:44;;;;;;;;;41.25;33.00;;;;;16.55;38.28;101260.16;146600;607;46020;-71
2021/12/24 12:12:42;;;;;;;;;43.00;35.00;;;;;16.48;38.43;101258.16;146600;601;46043;-69
2021/12/24 12:15:34;;;;;;;;;39.75;35.50;;;;;16.65;37.21;101255.25;146602;670;46010;-70
2021/12/24 12:18:43;;;;;;;;;46.75;37.75;;;;;16.82;39.26;101255.03;146599;601;47010;-70
2021/12/24 12:21:44;;;;;;;;;46.75;38.00;;;;;17.01;36.57;101253.94;146605;635;46020;-70
2021/12/24 12:27:59;;;;;;;;;47.75;40.25;;;;;16.73;37.72;101243.28;146604;671;46020;-69
2021/12/24 12:30:55;;;;;;;;;43.75;36.75;;;;;16.27;37.80;101236.47;146597;581;48917;-70
2021/12/24 12:33:47;;;;;;;;;46.25;35.75;;;;;15.82;37.24;101237.41;146604;595;46008;-70
2021/12/24 12:36:44;;;;;;;;;40.75;34.00;;;;;15.45;39.25;101238.56;146599;642;46016;-70
2021/12/24 12:39:36;;;;;;;;;39.25;32.50;;;;;15.16;39.23;101226.94;146600;595;46008;-69
2021/12/24 12:43:14;;;;;;;;;54.25;40.50;;;;;13.97;42.22;101066.25;146602;609;46016;-70
2021/12/24 12:46:07;;;;;;;;;52.50;40.75;;;;;15.14;41.43;101231.22;146602;564;46020;-70
2021/12/24 12:49:00;;;;;;;;;23.25;23.25;;;;;15.58;39.83;101232.09;146600;584;46030;-70
2021/12/24 12:52:02;;;;;;;;;26.25;23.00;;;;;15.93;38.81;101224.75;146601;680;46020;-71
2021/12/24 12:54:58;;;;;;;;;27.50;25.50;;;;;16.14;39.05;101225.53;146597;741;46917;-70
2021/12/24 12:57:50;;;;;;;;;31.00;28.00;;;;;16.34;38.29;101215.78;146599;595;46020;-71
2021/12/24 13:00:47;;;;;;;;;36.50;30.50;;;;;16.62;39.25;101222.00;146598;615;46016;-70
2021/12/24 13:04:16;;;;;;;;;40.50;34.75;;;;;16.10;40.34;101056.19;146604;573;46008;-70
2021/12/24 13:07:09;;;;;;;;;47.50;39.75;;;;;17.39;37.45;101222.81;146599;589;46917;-71
2021/12/24 13:10:07;;;;;;;;;47.00;38.75;;;;;17.70;39.06;101211.53;146604;713;46021;-71
2021/12/24 13:13:07;;;;;;;;;40.00;35.25;;;;;17.90;39.32;101220.03;146602;632;46016;-71
2021/12/24 13:16:00;;;;;;;;;19.50;18.75;;;;;18.02;37.28;101216.00;146603;635;47009;-72
2021/12/24 13:18:59;;;;;;;;;23.75;19.75;;;;;18.00;37.88;101214.19;146598;629;46016;-72
2021/12/24 13:25:19;;;;;;;;;34.75;29.75;;;;;18.03;37.26;101207.25;146600;577;46017;-71
2021/12/24 13:28:11;;;;;;;;;22.75;21.00;;;;;18.00;37.32;101218.56;146603;621;46008;-69
2021/12/24 13:31:17;;;;;;;;;30.25;25.75;;;;;17.90;39.61;101211.28;146601;581;46917;-72
2021/12/24 13:34:16;;;;;;;;;29.25;25.75;;;;;17.82;38.96;101203.19;146605;657;45020;-71
2021/12/24 13:37:19;;;;;;;;;24.25;21.00;;;;;17.90;39.89;101214.78;146599;636;46010;-71
2021/12/24 13:40:13;;;;;;;;;25.00;24.00;;;;;17.98;38.65;101210.66;146599;610;46008;-71
2021/12/24 13:43:12;;;;;;;;;25.00;21.00;;;;;17.94;37.70;101219.28;146596;586;46016;-71
2021/12/24 13:46:13;;;;;;;;;25.50;23.75;;;;;17.83;37.93;101206.69;146601;620;46025;-68
2021/12/24 13:49:13;;;;;;;;;24.75;20.50;;;;;17.70;38.03;101214.16;146599;569;46016;-71
2021/12/24 13:55:23;;;;;;;;;19.25;18.75;;;;;17.25;38.62;101211.88;146599;602;46017;-72
2021/12/24 13:58:18;;;;;;;;;21.75;19.00;;;;;17.09;37.37;101213.13;146601;586;46020;-71
2021/12/24 14:01:11;;;;;;;;;19.25;18.00;;;;;16.89;37.14;101216.84;146599;575;46011;-70
2021/12/24 14:04:05;;;;;;;;;32.25;30.00;;;;;16.67;37.94;101219.53;146602;594;46020;-71
2021/12/24 14:07:00;;;;;;;;;27.50;25.25;;;;;16.44;38.42;101222.22;146602;592;46010;-69
2021/12/24 14:09:52;;;;;;;;;23.75;22.00;;;;;16.28;38.92;101219.91;146600;697;47008;-72
2021/12/24 14:12:45;;;;;;;;;18.25;18.25;;;;;16.16;39.42;101217.72;146596;774;47012;-73
2021/12/24 14:16:03;;;;;;;;;22.75;21.00;;;;;16.05;38.07;101214.75;146606;609;46020;-72
2021/12/24 14:18:57;;;;;;;;;24.25;20.50;;;;;15.84;40.61;101220.06;146600;606;46016;-73
2021/12/24 14:21:51;;;;;;;;;21.00;21.00;;;;;15.75;39.77;101221.44;146602;628;47008;-73
2021/12/24 14:25:00;;;;;;;;;28.75;26.50;;;;;15.58;42.58;101229.50;146598;583;46017;-73
2021/12/24 14:27:53;;;;;;;;;26.00;24.00;;;;;15.43;40.07;101226.28;146599;602;47008;-72
2021/12/24 14:30:46;;;;;;;;;32.00;28.50;;;;;15.25;41.30;101221.19;146599;615;46011;-73
2021/12/24 14:33:39;;;;;;;;;28.25;24.75;;;;;15.15;41.90;101219.94;146601;643;47008;-74
2021/12/24 14:36:31;;;;;;;;;35.50;30.75;;;;;15.07;42.30;101223.06;146601;573;46016;-73
2021/12/24 14:39:23;;;;;;;;;32.00;30.00;;;;;14.90;42.93;101225.00;146600;569;46008;-74
2021/12/24 14:42:18;;;;;;;;;26.25;24.00;;;;;14.70;42.81;101224.13;146600;583;46016;-73
2021/12/24 14:45:22;;;;;;;;;30.75;28.00;;;;;14.42;44.31;101224.63;146604;659;46010;-73
2021/12/24 14:48:24;;;;;;;;;27.25;23.00;;;;;14.09;44.18;101217.13;146599;658;46016;-74
2021/12/24 14:51:17;;;;;;;;;23.25;22.50;;;;;13.72;45.13;101223.25;146604;577;46020;-73
2021/12/24 14:54:09;;;;;;;;;41.25;33.50;;;;;13.35;45.54;101223.25;146601;564;46010;-73
2021/12/24 14:57:10;;;;;;;;;34.50;30.75;;;;;12.95;46.66;101229.06;146605;636;45020;-73